sensor_id;sensor_type;location;lat;lon;timestamp;P1;durP1;ratioP1;P2;durP2;ratioP2
30635;SDS011;17400;52.392;9.750;2023-03-16T00:00:55;7.07;;;2.00;;
30635;SDS011;17400;52.392;9.750;2023-03-16T00:03:22;7.57;;;2.70;;
30635;SDS011;17400;52.392;9.750;2023-03-16T00:05:51;9.47;;;3.10;;
30635;SDS011;17400;52.392;9.750;2023-03-16T00:08:21;5.97;;;2.03;;
30635;SDS011;17400;52.392;9.750;2023-03-16T00:10:50;3.50;;;2.33;;
30635;SDS011;17400;52.392;9.750;2023-03-16T00:13:20;3.70;;;2.20;;
30635;SDS011;17400;52.392;9.750;2023-03-16T00:15:50;3.83;;;2.07;;
30635;SDS011;17400;52.392;9.750;2023-03-16T00:18:18;6.13;;;2.03;;
30635;SDS011;17400;52.392;9.750;2023-03-16T00:20:49;4.93;;;2.37;;
30635;SDS011;17400;52.392;9.750;2023-03-16T00:23:18;7.37;;;2.90;;
30635;SDS011;17400;52.392;9.750;2023-03-16T00:25:54;5.43;;;2.37;;
30635;SDS011;17400;52.392;9.750;2023-03-16T00:28:24;4.77;;;2.30;;
30635;SDS011;17400;52.392;9.750;2023-03-16T00:30:53;6.50;;;2.67;;
30635;SDS011;17400;52.392;9.750;2023-03-16T00:33:24;9.97;;;2.53;;
30635;SDS011;17400;52.392;9.750;2023-03-16T00:35:52;3.57;;;2.03;;
30635;SDS011;17400;52.392;9.750;2023-03-16T00:38:28;8.90;;;2.40;;
30635;SDS011;17400;52.392;9.750;2023-03-16T00:40:58;3.60;;;2.27;;
30635;SDS011;17400;52.392;9.750;2023-03-16T00:43:29;5.03;;;2.70;;
30635;SDS011;17400;52.392;9.750;2023-03-16T00:45:57;6.90;;;2.27;;
30635;SDS011;17400;52.392;9.750;2023-03-16T00:48:26;4.60;;;2.27;;
30635;SDS011;17400;52.392;9.750;2023-03-16T00:50:54;3.97;;;1.67;;
30635;SDS011;17400;52.392;9.750;2023-03-16T00:53:22;6.30;;;2.13;;
30635;SDS011;17400;52.392;9.750;2023-03-16T00:55:49;3.83;;;1.93;;
30635;SDS011;17400;52.392;9.750;2023-03-16T00:58:20;5.13;;;2.07;;
30635;SDS011;17400;52.392;9.750;2023-03-16T01:00:48;3.60;;;1.93;;
30635;SDS011;17400;52.392;9.750;2023-03-16T01:03:16;5.90;;;2.53;;
30635;SDS011;17400;52.392;9.750;2023-03-16T01:05:44;5.53;;;1.90;;
30635;SDS011;17400;52.392;9.750;2023-03-16T01:08:12;4.47;;;1.90;;
30635;SDS011;17400;52.392;9.750;2023-03-16T01:10:39;5.77;;;1.80;;
30635;SDS011;17400;52.392;9.750;2023-03-16T01:13:07;8.13;;;2.30;;
30635;SDS011;17400;52.392;9.750;2023-03-16T01:15:36;4.67;;;2.60;;
30635;SDS011;17400;52.392;9.750;2023-03-16T01:18:04;5.80;;;2.27;;
30635;SDS011;17400;52.392;9.750;2023-03-16T01:20:33;2.17;;;1.40;;
30635;SDS011;17400;52.392;9.750;2023-03-16T01:23:00;6.33;;;2.50;;
30635;SDS011;17400;52.392;9.750;2023-03-16T01:25:28;3.40;;;2.17;;
30635;SDS011;17400;52.392;9.750;2023-03-16T01:27:57;6.67;;;2.33;;
30635;SDS011;17400;52.392;9.750;2023-03-16T01:30:25;2.73;;;1.60;;
30635;SDS011;17400;52.392;9.750;2023-03-16T01:32:55;3.70;;;1.97;;
30635;SDS011;17400;52.392;9.750;2023-03-16T01:35:23;3.93;;;2.00;;
30635;SDS011;17400;52.392;9.750;2023-03-16T01:37:51;5.33;;;2.20;;
30635;SDS011;17400;52.392;9.750;2023-03-16T01:40:19;4.90;;;2.27;;
30635;SDS011;17400;52.392;9.750;2023-03-16T01:42:48;4.40;;;1.97;;
30635;SDS011;17400;52.392;9.750;2023-03-16T01:48:38;4.57;;;1.87;;
30635;SDS011;17400;52.392;9.750;2023-03-16T01:51:13;4.70;;;1.77;;
30635;SDS011;17400;52.392;9.750;2023-03-16T01:53:46;3.07;;;1.80;;
30635;SDS011;17400;52.392;9.750;2023-03-16T01:56:19;4.03;;;2.37;;
30635;SDS011;17400;52.392;9.750;2023-03-16T01:58:51;8.87;;;2.10;;
30635;SDS011;17400;52.392;9.750;2023-03-16T02:01:25;3.37;;;1.63;;
30635;SDS011;17400;52.392;9.750;2023-03-16T02:03:56;5.77;;;2.13;;
30635;SDS011;17400;52.392;9.750;2023-03-16T02:06:31;6.20;;;2.43;;
30635;SDS011;17400;52.392;9.750;2023-03-16T02:09:00;4.70;;;2.13;;
30635;SDS011;17400;52.392;9.750;2023-03-16T02:11:29;5.93;;;2.37;;
30635;SDS011;17400;52.392;9.750;2023-03-16T02:13:57;2.90;;;1.67;;
30635;SDS011;17400;52.392;9.750;2023-03-16T02:16:32;3.50;;;2.03;;
30635;SDS011;17400;52.392;9.750;2023-03-16T02:19:01;4.10;;;2.20;;
30635;SDS011;17400;52.392;9.750;2023-03-16T02:21:34;4.20;;;1.63;;
30635;SDS011;17400;52.392;9.750;2023-03-16T02:24:08;3.30;;;1.57;;
30635;SDS011;17400;52.392;9.750;2023-03-16T02:26:38;4.33;;;1.97;;
30635;SDS011;17400;52.392;9.750;2023-03-16T02:29:16;6.40;;;2.30;;
30635;SDS011;17400;52.392;9.750;2023-03-16T02:31:52;3.97;;;2.70;;
30635;SDS011;17400;52.392;9.750;2023-03-16T02:34:21;5.53;;;2.50;;
30635;SDS011;17400;52.392;9.750;2023-03-16T02:36:50;4.27;;;2.50;;
30635;SDS011;17400;52.392;9.750;2023-03-16T02:39:19;3.20;;;1.77;;
30635;SDS011;17400;52.392;9.750;2023-03-16T02:41:46;6.93;;;2.13;;
30635;SDS011;17400;52.392;9.750;2023-03-16T02:44:14;6.23;;;3.03;;
30635;SDS011;17400;52.392;9.750;2023-03-16T02:46:50;7.67;;;2.10;;
30635;SDS011;17400;52.392;9.750;2023-03-16T02:49:23;4.23;;;1.87;;
30635;SDS011;17400;52.392;9.750;2023-03-16T02:51:53;6.13;;;2.70;;
30635;SDS011;17400;52.392;9.750;2023-03-16T02:54:22;9.07;;;2.53;;
30635;SDS011;17400;52.392;9.750;2023-03-16T02:56:50;4.23;;;2.27;;
30635;SDS011;17400;52.392;9.750;2023-03-16T02:59:18;8.60;;;2.93;;
30635;SDS011;17400;52.392;9.750;2023-03-16T03:01:46;7.53;;;2.63;;
30635;SDS011;17400;52.392;9.750;2023-03-16T03:04:15;8.50;;;2.70;;
30635;SDS011;17400;52.392;9.750;2023-03-16T03:06:42;5.53;;;2.10;;
30635;SDS011;17400;52.392;9.750;2023-03-16T03:09:10;4.07;;;2.60;;
30635;SDS011;17400;52.392;9.750;2023-03-16T03:11:38;2.73;;;2.03;;
30635;SDS011;17400;52.392;9.750;2023-03-16T03:14:07;5.33;;;2.43;;
30635;SDS011;17400;52.392;9.750;2023-03-16T03:16:34;6.80;;;2.20;;
30635;SDS011;17400;52.392;9.750;2023-03-16T03:19:02;4.47;;;2.67;;
30635;SDS011;17400;52.392;9.750;2023-03-16T03:21:31;3.90;;;1.83;;
30635;SDS011;17400;52.392;9.750;2023-03-16T03:23:59;6.67;;;2.43;;
30635;SDS011;17400;52.392;9.750;2023-03-16T03:26:27;5.13;;;2.23;;
30635;SDS011;17400;52.392;9.750;2023-03-16T03:28:55;4.40;;;2.63;;
30635;SDS011;17400;52.392;9.750;2023-03-16T03:31:23;3.67;;;2.30;;
30635;SDS011;17400;52.392;9.750;2023-03-16T03:33:50;8.10;;;3.17;;
30635;SDS011;17400;52.392;9.750;2023-03-16T03:36:19;5.70;;;2.17;;
30635;SDS011;17400;52.392;9.750;2023-03-16T03:38:48;7.33;;;2.30;;
30635;SDS011;17400;52.392;9.750;2023-03-16T03:41:16;6.13;;;2.53;;
30635;SDS011;17400;52.392;9.750;2023-03-16T03:43:44;6.50;;;2.73;;
30635;SDS011;17400;52.392;9.750;2023-03-16T03:46:12;3.47;;;2.07;;
30635;SDS011;17400;52.392;9.750;2023-03-16T03:48:40;4.63;;;2.23;;
30635;SDS011;17400;52.392;9.750;2023-03-16T03:51:07;5.57;;;2.30;;
30635;SDS011;17400;52.392;9.750;2023-03-16T03:53:35;6.30;;;3.40;;
30635;SDS011;17400;52.392;9.750;2023-03-16T03:56:05;5.47;;;1.97;;
30635;SDS011;17400;52.392;9.750;2023-03-16T03:58:33;4.50;;;2.97;;
30635;SDS011;17400;52.392;9.750;2023-03-16T04:01:01;4.00;;;2.10;;
30635;SDS011;17400;52.392;9.750;2023-03-16T04:03:28;7.30;;;2.50;;
30635;SDS011;17400;52.392;9.750;2023-03-16T04:05:56;6.00;;;2.20;;
30635;SDS011;17400;52.392;9.750;2023-03-16T04:08:24;7.60;;;2.20;;
30635;SDS011;17400;52.392;9.750;2023-03-16T04:10:51;6.47;;;2.27;;
30635;SDS011;17400;52.392;9.750;2023-03-16T04:13:20;2.73;;;1.77;;
30635;SDS011;17400;52.392;9.750;2023-03-16T04:15:48;3.13;;;1.50;;
30635;SDS011;17400;52.392;9.750;2023-03-16T04:18:19;3.67;;;1.90;;
30635;SDS011;17400;52.392;9.750;2023-03-16T04:20:47;7.23;;;2.47;;
30635;SDS011;17400;52.392;9.750;2023-03-16T04:23:15;5.20;;;2.30;;
30635;SDS011;17400;52.392;9.750;2023-03-16T04:25:42;5.90;;;2.20;;
30635;SDS011;17400;52.392;9.750;2023-03-16T04:28:10;3.37;;;1.83;;
30635;SDS011;17400;52.392;9.750;2023-03-16T04:30:40;3.90;;;1.80;;
30635;SDS011;17400;52.392;9.750;2023-03-16T04:33:08;5.40;;;1.90;;
30635;SDS011;17400;52.392;9.750;2023-03-16T04:35:36;3.37;;;1.47;;
30635;SDS011;17400;52.392;9.750;2023-03-16T04:38:04;3.70;;;2.10;;
30635;SDS011;17400;52.392;9.750;2023-03-16T04:40:33;5.70;;;2.17;;
30635;SDS011;17400;52.392;9.750;2023-03-16T04:43:01;4.03;;;1.90;;
30635;SDS011;17400;52.392;9.750;2023-03-16T04:45:28;5.97;;;2.07;;
30635;SDS011;17400;52.392;9.750;2023-03-16T04:47:59;4.27;;;2.13;;
30635;SDS011;17400;52.392;9.750;2023-03-16T04:50:26;5.00;;;2.20;;
30635;SDS011;17400;52.392;9.750;2023-03-16T04:52:54;8.17;;;3.73;;
30635;SDS011;17400;52.392;9.750;2023-03-16T04:55:22;6.27;;;2.00;;
30635;SDS011;17400;52.392;9.750;2023-03-16T04:57:50;3.67;;;1.70;;
30635;SDS011;17400;52.392;9.750;2023-03-16T05:00:18;4.07;;;1.57;;
30635;SDS011;17400;52.392;9.750;2023-03-16T05:02:47;5.33;;;1.40;;
30635;SDS011;17400;52.392;9.750;2023-03-16T05:05:17;5.13;;;1.93;;
30635;SDS011;17400;52.392;9.750;2023-03-16T05:07:45;3.83;;;1.80;;
30635;SDS011;17400;52.392;9.750;2023-03-16T05:10:14;5.47;;;1.80;;
30635;SDS011;17400;52.392;9.750;2023-03-16T05:12:44;2.73;;;1.53;;
30635;SDS011;17400;52.392;9.750;2023-03-16T05:15:12;4.20;;;1.70;;
30635;SDS011;17400;52.392;9.750;2023-03-16T05:17:40;4.07;;;1.63;;
30635;SDS011;17400;52.392;9.750;2023-03-16T05:20:08;5.07;;;2.17;;
30635;SDS011;17400;52.392;9.750;2023-03-16T05:22:43;3.57;;;1.90;;
30635;SDS011;17400;52.392;9.750;2023-03-16T05:25:14;2.43;;;1.47;;
30635;SDS011;17400;52.392;9.750;2023-03-16T05:27:43;3.40;;;1.50;;
30635;SDS011;17400;52.392;9.750;2023-03-16T05:30:12;4.40;;;1.90;;
30635;SDS011;17400;52.392;9.750;2023-03-16T05:32:41;4.50;;;1.80;;
30635;SDS011;17400;52.392;9.750;2023-03-16T05:35:10;3.83;;;1.80;;
30635;SDS011;17400;52.392;9.750;2023-03-16T05:37:39;5.83;;;1.63;;
30635;SDS011;17400;52.392;9.750;2023-03-16T05:40:09;3.57;;;1.77;;
30635;SDS011;17400;52.392;9.750;2023-03-16T05:42:42;3.57;;;1.93;;
30635;SDS011;17400;52.392;9.750;2023-03-16T05:45:11;5.87;;;1.67;;
30635;SDS011;17400;52.392;9.750;2023-03-16T05:47:41;4.80;;;1.67;;
30635;SDS011;17400;52.392;9.750;2023-03-16T05:50:09;3.03;;;2.07;;
30635;SDS011;17400;52.392;9.750;2023-03-16T05:52:38;3.07;;;1.70;;
30635;SDS011;17400;52.392;9.750;2023-03-16T05:55:08;5.20;;;2.07;;
30635;SDS011;17400;52.392;9.750;2023-03-16T05:57:37;5.63;;;2.03;;
30635;SDS011;17400;52.392;9.750;2023-03-16T06:00:05;4.20;;;1.63;;
30635;SDS011;17400;52.392;9.750;2023-03-16T06:02:40;5.17;;;2.17;;
30635;SDS011;17400;52.392;9.750;2023-03-16T06:05:09;2.30;;;1.30;;
30635;SDS011;17400;52.392;9.750;2023-03-16T06:07:37;3.97;;;1.80;;
30635;SDS011;17400;52.392;9.750;2023-03-16T06:10:05;3.23;;;1.47;;
30635;SDS011;17400;52.392;9.750;2023-03-16T06:12:35;3.10;;;1.63;;
30635;SDS011;17400;52.392;9.750;2023-03-16T06:15:03;2.93;;;1.60;;
30635;SDS011;17400;52.392;9.750;2023-03-16T06:17:32;3.73;;;1.63;;
30635;SDS011;17400;52.392;9.750;2023-03-16T06:20:00;4.47;;;1.77;;
30635;SDS011;17400;52.392;9.750;2023-03-16T06:22:28;3.47;;;1.90;;
30635;SDS011;17400;52.392;9.750;2023-03-16T06:24:56;3.60;;;1.90;;
30635;SDS011;17400;52.392;9.750;2023-03-16T06:27:24;3.43;;;2.03;;
30635;SDS011;17400;52.392;9.750;2023-03-16T06:29:53;4.70;;;2.07;;
30635;SDS011;17400;52.392;9.750;2023-03-16T06:32:21;4.17;;;1.80;;
30635;SDS011;17400;52.392;9.750;2023-03-16T06:34:48;4.47;;;1.60;;
30635;SDS011;17400;52.392;9.750;2023-03-16T06:37:16;4.63;;;1.70;;
30635;SDS011;17400;52.392;9.750;2023-03-16T06:39:45;7.70;;;1.87;;
30635;SDS011;17400;52.392;9.750;2023-03-16T06:42:13;10.10;;;2.43;;
30635;SDS011;17400;52.392;9.750;2023-03-16T06:44:41;5.27;;;2.10;;
30635;SDS011;17400;52.392;9.750;2023-03-16T06:47:10;6.07;;;2.33;;
30635;SDS011;17400;52.392;9.750;2023-03-16T06:49:38;6.80;;;2.13;;
30635;SDS011;17400;52.392;9.750;2023-03-16T06:52:06;12.73;;;3.63;;
30635;SDS011;17400;52.392;9.750;2023-03-16T06:54:35;5.63;;;2.60;;
30635;SDS011;17400;52.392;9.750;2023-03-16T06:57:03;3.33;;;2.23;;
30635;SDS011;17400;52.392;9.750;2023-03-16T06:59:31;3.53;;;1.90;;
30635;SDS011;17400;52.392;9.750;2023-03-16T07:01:59;3.47;;;1.73;;
30635;SDS011;17400;52.392;9.750;2023-03-16T07:04:29;5.47;;;2.60;;
30635;SDS011;17400;52.392;9.750;2023-03-16T07:06:57;3.87;;;1.70;;
30635;SDS011;17400;52.392;9.750;2023-03-16T07:09:26;7.20;;;2.80;;
30635;SDS011;17400;52.392;9.750;2023-03-16T07:11:53;8.07;;;2.00;;
30635;SDS011;17400;52.392;9.750;2023-03-16T07:14:21;5.10;;;2.07;;
30635;SDS011;17400;52.392;9.750;2023-03-16T07:16:51;5.37;;;2.20;;
30635;SDS011;17400;52.392;9.750;2023-03-16T07:19:19;3.80;;;1.97;;
30635;SDS011;17400;52.392;9.750;2023-03-16T07:21:49;3.57;;;2.00;;
30635;SDS011;17400;52.392;9.750;2023-03-16T07:24:16;4.17;;;2.33;;
30635;SDS011;17400;52.392;9.750;2023-03-16T07:26:44;3.60;;;1.70;;
30635;SDS011;17400;52.392;9.750;2023-03-16T07:29:12;5.30;;;2.30;;
30635;SDS011;17400;52.392;9.750;2023-03-16T07:31:42;5.40;;;2.87;;
30635;SDS011;17400;52.392;9.750;2023-03-16T07:34:10;6.00;;;3.07;;
30635;SDS011;17400;52.392;9.750;2023-03-16T07:36:37;4.33;;;2.97;;
30635;SDS011;17400;52.392;9.750;2023-03-16T07:39:07;6.40;;;2.87;;
30635;SDS011;17400;52.392;9.750;2023-03-16T07:41:35;5.23;;;2.87;;
30635;SDS011;17400;52.392;9.750;2023-03-16T07:44:02;7.23;;;2.47;;
30635;SDS011;17400;52.392;9.750;2023-03-16T07:46:31;3.70;;;2.40;;
30635;SDS011;17400;52.392;9.750;2023-03-16T07:49:02;3.60;;;2.27;;
30635;SDS011;17400;52.392;9.750;2023-03-16T07:51:30;4.83;;;2.73;;
30635;SDS011;17400;52.392;9.750;2023-03-16T07:53:57;6.27;;;2.33;;
30635;SDS011;17400;52.392;9.750;2023-03-16T07:56:26;3.27;;;1.87;;
30635;SDS011;17400;52.392;9.750;2023-03-16T07:59:11;4.67;;;2.07;;
30635;SDS011;17400;52.392;9.750;2023-03-16T08:01:39;5.30;;;2.83;;
30635;SDS011;17400;52.392;9.750;2023-03-16T08:04:06;7.37;;;3.47;;
30635;SDS011;17400;52.392;9.750;2023-03-16T08:06:34;4.70;;;1.80;;
30635;SDS011;17400;52.392;9.750;2023-03-16T08:09:02;3.67;;;2.10;;
30635;SDS011;17400;52.392;9.750;2023-03-16T08:11:32;4.50;;;1.67;;
30635;SDS011;17400;52.392;9.750;2023-03-16T08:14:01;3.77;;;1.60;;
30635;SDS011;17400;52.392;9.750;2023-03-16T08:16:30;3.97;;;1.90;;
30635;SDS011;17400;52.392;9.750;2023-03-16T08:18:58;3.00;;;1.17;;
30635;SDS011;17400;52.392;9.750;2023-03-16T08:21:26;4.83;;;1.87;;
30635;SDS011;17400;52.392;9.750;2023-03-16T08:23:55;4.20;;;1.50;;
30635;SDS011;17400;52.392;9.750;2023-03-16T08:26:23;2.77;;;1.20;;
30635;SDS011;17400;52.392;9.750;2023-03-16T08:28:53;2.30;;;1.30;;
30635;SDS011;17400;52.392;9.750;2023-03-16T08:31:21;4.17;;;1.50;;
30635;SDS011;17400;52.392;9.750;2023-03-16T08:33:50;3.67;;;1.43;;
30635;SDS011;17400;52.392;9.750;2023-03-16T08:36:19;4.57;;;1.20;;
30635;SDS011;17400;52.392;9.750;2023-03-16T08:38:47;2.47;;;1.20;;
30635;SDS011;17400;52.392;9.750;2023-03-16T08:41:32;1.83;;;0.87;;
30635;SDS011;17400;52.392;9.750;2023-03-16T08:44:01;1.67;;;0.87;;
30635;SDS011;17400;52.392;9.750;2023-03-16T08:46:29;6.27;;;2.20;;
30635;SDS011;17400;52.392;9.750;2023-03-16T08:48:57;1.17;;;0.90;;
30635;SDS011;17400;52.392;9.750;2023-03-16T08:51:25;3.10;;;1.43;;
30635;SDS011;17400;52.392;9.750;2023-03-16T08:53:54;3.73;;;1.43;;
30635;SDS011;17400;52.392;9.750;2023-03-16T08:56:22;11.47;;;1.63;;
30635;SDS011;17400;52.392;9.750;2023-03-16T08:58:50;4.60;;;1.30;;
30635;SDS011;17400;52.392;9.750;2023-03-16T09:01:19;1.70;;;1.20;;
30635;SDS011;17400;52.392;9.750;2023-03-16T09:03:47;2.67;;;1.63;;
30635;SDS011;17400;52.392;9.750;2023-03-16T09:06:16;3.57;;;1.17;;
30635;SDS011;17400;52.392;9.750;2023-03-16T09:08:45;5.10;;;0.80;;
30635;SDS011;17400;52.392;9.750;2023-03-16T09:11:14;12.40;;;2.00;;
30635;SDS011;17400;52.392;9.750;2023-03-16T09:13:44;2.17;;;1.10;;
30635;SDS011;17400;52.392;9.750;2023-03-16T09:16:12;1.13;;;0.93;;
30635;SDS011;17400;52.392;9.750;2023-03-16T09:18:43;3.87;;;1.47;;
30635;SDS011;17400;52.392;9.750;2023-03-16T09:21:11;3.80;;;0.80;;
30635;SDS011;17400;52.392;9.750;2023-03-16T09:23:39;3.77;;;1.30;;
30635;SDS011;17400;52.392;9.750;2023-03-16T09:26:08;4.50;;;2.43;;
30635;SDS011;17400;52.392;9.750;2023-03-16T09:28:38;2.93;;;2.30;;
30635;SDS011;17400;52.392;9.750;2023-03-16T09:31:08;4.37;;;2.23;;
30635;SDS011;17400;52.392;9.750;2023-03-16T09:33:37;1.73;;;0.90;;
30635;SDS011;17400;52.392;9.750;2023-03-16T09:36:06;2.60;;;1.03;;
30635;SDS011;17400;52.392;9.750;2023-03-16T09:38:36;2.97;;;1.07;;
30635;SDS011;17400;52.392;9.750;2023-03-16T09:41:06;2.23;;;1.00;;
30635;SDS011;17400;52.392;9.750;2023-03-16T09:43:42;1.90;;;0.93;;
30635;SDS011;17400;52.392;9.750;2023-03-16T09:46:24;2.10;;;1.00;;
30635;SDS011;17400;52.392;9.750;2023-03-16T09:48:54;8.80;;;0.97;;
30635;SDS011;17400;52.392;9.750;2023-03-16T09:51:29;0.70;;;0.70;;
30635;SDS011;17400;52.392;9.750;2023-03-16T09:54:09;2.30;;;0.87;;
30635;SDS011;17400;52.392;9.750;2023-03-16T09:56:43;1.20;;;0.77;;
30635;SDS011;17400;52.392;9.750;2023-03-16T09:59:12;2.40;;;0.90;;
30635;SDS011;17400;52.392;9.750;2023-03-16T10:01:45;0.80;;;0.50;;
30635;SDS011;17400;52.392;9.750;2023-03-16T10:04:38;3.73;;;0.77;;
30635;SDS011;17400;52.392;9.750;2023-03-16T10:07:17;4.67;;;2.73;;
30635;SDS011;17400;52.392;9.750;2023-03-16T10:09:51;6.30;;;4.27;;
30635;SDS011;17400;52.392;9.750;2023-03-16T10:12:24;1.77;;;1.20;;
30635;SDS011;17400;52.392;9.750;2023-03-16T10:14:57;2.07;;;0.90;;
30635;SDS011;17400;52.392;9.750;2023-03-16T10:17:34;1.95;;;0.90;;
30635;SDS011;17400;52.392;9.750;2023-03-16T10:20:09;3.97;;;1.23;;
30635;SDS011;17400;52.392;9.750;2023-03-16T10:22:44;1.58;;;0.73;;
30635;SDS011;17400;52.392;9.750;2023-03-16T10:25:15;1.13;;;0.40;;
30635;SDS011;17400;52.392;9.750;2023-03-16T10:27:48;2.57;;;1.53;;
30635;SDS011;17400;52.392;9.750;2023-03-16T10:30:21;1.42;;;0.90;;
30635;SDS011;17400;52.392;9.750;2023-03-16T10:32:54;4.03;;;0.83;;
30635;SDS011;17400;52.392;9.750;2023-03-16T10:35:29;2.13;;;1.07;;
30635;SDS011;17400;52.392;9.750;2023-03-16T10:38:08;2.58;;;1.00;;
30635;SDS011;17400;52.392;9.750;2023-03-16T10:40:53;1.90;;;1.40;;
30635;SDS011;17400;52.392;9.750;2023-03-16T10:43:23;2.50;;;1.25;;
30635;SDS011;17400;52.392;9.750;2023-03-16T10:45:51;2.27;;;0.97;;
30635;SDS011;17400;52.392;9.750;2023-03-16T10:48:29;4.07;;;1.20;;
30635;SDS011;17400;52.392;9.750;2023-03-16T10:50:59;5.17;;;0.70;;
30635;SDS011;17400;52.392;9.750;2023-03-16T10:53:34;4.17;;;0.90;;
30635;SDS011;17400;52.392;9.750;2023-03-16T10:56:07;3.35;;;2.30;;
30635;SDS011;17400;52.392;9.750;2023-03-16T10:58:39;2.70;;;1.70;;
30635;SDS011;17400;52.392;9.750;2023-03-16T11:01:09;5.17;;;1.67;;
30635;SDS011;17400;52.392;9.750;2023-03-16T11:03:39;1.73;;;0.95;;
30635;SDS011;17400;52.392;9.750;2023-03-16T11:06:15;3.75;;;1.10;;
30635;SDS011;17400;52.392;9.750;2023-03-16T11:08:49;1.88;;;1.05;;
30635;SDS011;17400;52.392;9.750;2023-03-16T11:11:20;6.55;;;1.40;;
30635;SDS011;17400;52.392;9.750;2023-03-16T11:13:56;2.83;;;0.85;;
30635;SDS011;17400;52.392;9.750;2023-03-16T11:16:27;1.02;;;0.60;;
30635;SDS011;17400;52.392;9.750;2023-03-16T11:19:01;1.55;;;0.70;;
30635;SDS011;17400;52.392;9.750;2023-03-16T11:21:37;2.58;;;1.10;;
30635;SDS011;17400;52.392;9.750;2023-03-16T11:24:15;6.50;;;1.80;;
30635;SDS011;17400;52.392;9.750;2023-03-16T11:26:51;4.35;;;1.00;;
30635;SDS011;17400;52.392;9.750;2023-03-16T11:29:22;1.20;;;0.82;;
30635;SDS011;17400;52.392;9.750;2023-03-16T11:31:53;1.75;;;1.27;;
30635;SDS011;17400;52.392;9.750;2023-03-16T11:34:26;3.45;;;1.17;;
30635;SDS011;17400;52.392;9.750;2023-03-16T11:36:56;1.25;;;0.80;;
30635;SDS011;17400;52.392;9.750;2023-03-16T11:39:35;4.97;;;1.20;;
30635;SDS011;17400;52.392;9.750;2023-03-16T11:42:17;2.35;;;1.00;;
30635;SDS011;17400;52.392;9.750;2023-03-16T11:44:54;2.58;;;0.63;;
30635;SDS011;17400;52.392;9.750;2023-03-16T11:47:43;1.83;;;1.00;;
30635;SDS011;17400;52.392;9.750;2023-03-16T11:50:32;1.38;;;0.75;;
30635;SDS011;17400;52.392;9.750;2023-03-16T11:53:05;2.25;;;1.10;;
30635;SDS011;17400;52.392;9.750;2023-03-16T11:55:43;2.28;;;1.17;;
30635;SDS011;17400;52.392;9.750;2023-03-16T11:58:26;2.85;;;1.13;;
30635;SDS011;17400;52.392;9.750;2023-03-16T12:01:05;2.30;;;0.90;;
30635;SDS011;17400;52.392;9.750;2023-03-16T12:03:43;2.47;;;0.80;;
30635;SDS011;17400;52.392;9.750;2023-03-16T12:06:29;2.55;;;0.80;;
30635;SDS011;17400;52.392;9.750;2023-03-16T12:09:16;0.90;;;0.63;;
30635;SDS011;17400;52.392;9.750;2023-03-16T12:12:04;1.90;;;0.98;;
30635;SDS011;17400;52.392;9.750;2023-03-16T12:14:50;2.15;;;1.10;;
30635;SDS011;17400;52.392;9.750;2023-03-16T12:17:26;1.33;;;0.70;;
30635;SDS011;17400;52.392;9.750;2023-03-16T12:19:58;1.38;;;0.70;;
30635;SDS011;17400;52.392;9.750;2023-03-16T12:22:32;3.97;;;1.15;;
30635;SDS011;17400;52.392;9.750;2023-03-16T12:25:03;1.73;;;1.15;;
30635;SDS011;17400;52.392;9.750;2023-03-16T12:27:41;4.57;;;1.20;;
30635;SDS011;17400;52.392;9.750;2023-03-16T12:30:18;1.15;;;0.98;;
30635;SDS011;17400;52.392;9.750;2023-03-16T12:32:51;2.50;;;1.00;;
30635;SDS011;17400;52.392;9.750;2023-03-16T12:35:27;1.88;;;1.17;;
30635;SDS011;17400;52.392;9.750;2023-03-16T12:41:08;4.07;;;1.17;;
30635;SDS011;17400;52.392;9.750;2023-03-16T12:43:47;3.33;;;0.77;;
30635;SDS011;17400;52.392;9.750;2023-03-16T12:46:24;1.58;;;0.88;;
30635;SDS011;17400;52.392;9.750;2023-03-16T12:48:58;2.70;;;0.93;;
30635;SDS011;17400;52.392;9.750;2023-03-16T12:51:31;1.67;;;0.95;;
30635;SDS011;17400;52.392;9.750;2023-03-16T12:54:00;2.90;;;1.40;;
30635;SDS011;17400;52.392;9.750;2023-03-16T12:56:30;1.20;;;0.85;;
30635;SDS011;17400;52.392;9.750;2023-03-16T12:59:00;3.92;;;1.48;;
30635;SDS011;17400;52.392;9.750;2023-03-16T13:01:35;3.28;;;1.02;;
30635;SDS011;17400;52.392;9.750;2023-03-16T13:04:08;3.53;;;0.95;;
30635;SDS011;17400;52.392;9.750;2023-03-16T13:06:41;3.45;;;1.27;;
30635;SDS011;17400;52.392;9.750;2023-03-16T13:09:11;4.95;;;1.30;;
30635;SDS011;17400;52.392;9.750;2023-03-16T13:11:44;5.47;;;1.55;;
30635;SDS011;17400;52.392;9.750;2023-03-16T13:14:32;2.13;;;1.00;;
30635;SDS011;17400;52.392;9.750;2023-03-16T13:17:04;2.85;;;1.20;;
30635;SDS011;17400;52.392;9.750;2023-03-16T13:19:57;2.28;;;1.23;;
30635;SDS011;17400;52.392;9.750;2023-03-16T13:22:29;2.55;;;1.30;;
30635;SDS011;17400;52.392;9.750;2023-03-16T13:25:09;0.85;;;0.55;;
30635;SDS011;17400;52.392;9.750;2023-03-16T13:27:41;0.98;;;0.80;;
30635;SDS011;17400;52.392;9.750;2023-03-16T13:30:16;1.15;;;0.73;;
30635;SDS011;17400;52.392;9.750;2023-03-16T13:32:46;3.40;;;0.77;;
30635;SDS011;17400;52.392;9.750;2023-03-16T13:35:15;2.78;;;1.30;;
30635;SDS011;17400;52.392;9.750;2023-03-16T13:37:44;2.60;;;1.20;;
30635;SDS011;17400;52.392;9.750;2023-03-16T13:40:15;1.70;;;0.93;;
30635;SDS011;17400;52.392;9.750;2023-03-16T13:42:46;2.28;;;1.13;;
30635;SDS011;17400;52.392;9.750;2023-03-16T13:45:20;3.13;;;1.10;;
30635;SDS011;17400;52.392;9.750;2023-03-16T13:47:49;0.77;;;0.50;;
30635;SDS011;17400;52.392;9.750;2023-03-16T13:50:20;2.42;;;1.00;;
30635;SDS011;17400;52.392;9.750;2023-03-16T13:52:51;4.15;;;1.25;;
30635;SDS011;17400;52.392;9.750;2023-03-16T13:55:26;3.13;;;1.38;;
30635;SDS011;17400;52.392;9.750;2023-03-16T13:57:57;1.70;;;0.70;;
30635;SDS011;17400;52.392;9.750;2023-03-16T14:00:29;1.83;;;0.70;;
30635;SDS011;17400;52.392;9.750;2023-03-16T14:03:07;4.20;;;1.25;;
30635;SDS011;17400;52.392;9.750;2023-03-16T14:05:41;3.85;;;1.00;;
30635;SDS011;17400;52.392;9.750;2023-03-16T14:08:13;2.45;;;0.77;;
30635;SDS011;17400;52.392;9.750;2023-03-16T14:10:42;2.08;;;0.73;;
30635;SDS011;17400;52.392;9.750;2023-03-16T14:13:22;1.92;;;0.75;;
30635;SDS011;17400;52.392;9.750;2023-03-16T14:15:54;2.97;;;1.33;;
30635;SDS011;17400;52.392;9.750;2023-03-16T14:18:26;2.83;;;1.20;;
30635;SDS011;17400;52.392;9.750;2023-03-16T14:20:58;1.20;;;0.73;;
30635;SDS011;17400;52.392;9.750;2023-03-16T14:23:34;4.47;;;0.98;;
30635;SDS011;17400;52.392;9.750;2023-03-16T14:26:04;1.40;;;0.93;;
30635;SDS011;17400;52.392;9.750;2023-03-16T14:28:38;1.90;;;1.25;;
30635;SDS011;17400;52.392;9.750;2023-03-16T14:31:09;1.67;;;0.77;;
30635;SDS011;17400;52.392;9.750;2023-03-16T14:33:40;2.08;;;0.90;;
30635;SDS011;17400;52.392;9.750;2023-03-16T14:36:11;0.88;;;0.80;;
30635;SDS011;17400;52.392;9.750;2023-03-16T14:38:41;1.65;;;0.75;;
30635;SDS011;17400;52.392;9.750;2023-03-16T14:41:13;2.08;;;1.00;;
30635;SDS011;17400;52.392;9.750;2023-03-16T14:43:47;1.48;;;1.02;;
30635;SDS011;17400;52.392;9.750;2023-03-16T14:46:19;1.98;;;1.40;;
30635;SDS011;17400;52.392;9.750;2023-03-16T14:49:00;0.98;;;0.57;;
30635;SDS011;17400;52.392;9.750;2023-03-16T14:51:30;1.25;;;0.30;;
30635;SDS011;17400;52.392;9.750;2023-03-16T14:53:59;0.57;;;0.57;;
30635;SDS011;17400;52.392;9.750;2023-03-16T14:56:30;1.50;;;1.10;;
30635;SDS011;17400;52.392;9.750;2023-03-16T14:59:00;2.30;;;0.80;;
30635;SDS011;17400;52.392;9.750;2023-03-16T15:01:29;1.98;;;0.75;;
30635;SDS011;17400;52.392;9.750;2023-03-16T15:03:57;3.55;;;1.20;;
30635;SDS011;17400;52.392;9.750;2023-03-16T15:06:25;4.72;;;1.15;;
30635;SDS011;17400;52.392;9.750;2023-03-16T15:08:53;1.20;;;0.95;;
30635;SDS011;17400;52.392;9.750;2023-03-16T15:11:20;3.38;;;1.20;;
30635;SDS011;17400;52.392;9.750;2023-03-16T15:13:49;3.05;;;1.30;;
30635;SDS011;17400;52.392;9.750;2023-03-16T15:16:30;1.45;;;0.43;;